Terminal Aerodrome Forecast
Issued by NWS

Home | Current Version | Previous Version | Text Only | Print | Product List | Glossary On
Versions: 1 2 3 4 5 6 7 8 9 10 11 12 13 14
000
FTUS45 KABQ 252343
TAFLVS
TAF
KLVS 252343Z 2600/2624 02011KT P6SM VCSH SCT100 BKN140
      TEMPO 2601/2604 VRB15G25KT 5SM SHRA BKN060
     FM260700 13007KT P6SM SCT080 BKN120
     FM261000 03006KT P6SM SCT120
     FM262100 12010KT P6SM VCTS SCT080CB BKN120=

USA.gov is the U.S. government's official web portal to all federal, state and local government web resources and services.